Time;durP1;ratioP1;P1;durP2;ratioP2;P2;SDS_P1;SDS_P2;PMS_P1;PMS_P2;Temp;Humidity;BMP_temperature;BMP_pressure;BME280_temperature;BME280_humidity;BME280_pressure;Samples;Min_cycle;Max_cycle;Signal;HPM_P1;HPM_P2
2021/12/14 00:02:17;;;;;;;1.00;1.00;;;8.10;99.90;;;;;;5050405;28;20483;-89
2021/12/14 00:04:47;;;;;;;1.25;1.15;;;8.10;99.90;;;;;;5047044;28;20051;-88
2021/12/14 00:07:19;;;;;;;0.73;0.73;;;8.10;99.90;;;;;;5047374;28;20105;-89
2021/12/14 00:10:01;;;;;;;2.05;1.45;;;8.10;99.90;;;;;;5060154;28;20044;-91
2021/12/14 00:12:43;;;;;;;1.23;1.13;;;8.10;99.90;;;;;;5054163;28;20041;-90
2021/12/14 00:15:16;;;;;;;0.80;0.80;;;8.10;99.90;;;;;;5048697;28;20076;-87
2021/12/14 00:17:46;;;;;;;1.27;1.17;;;8.10;99.90;;;;;;5055809;28;20218;-90
2021/12/14 00:20:26;;;;;;;0.60;0.60;;;8.10;99.90;;;;;;5052388;28;20032;-89
2021/12/14 00:25:20;;;;;;;1.85;1.08;;;8.10;99.90;;;;;;5066325;28;20041;-90
2021/12/14 00:27:49;;;;;;;1.23;1.15;;;8.10;99.90;;;;;;5051103;28;20040;-90
2021/12/14 00:30:24;;;;;;;1.00;1.00;;;8.10;99.90;;;;;;5062782;28;20077;-90
2021/12/14 00:32:49;;;;;;;1.30;1.17;;;8.10;99.90;;;;;;5052367;28;20259;-89
2021/12/14 00:35:20;;;;;;;1.23;1.13;;;8.20;99.90;;;;;;5065276;28;20063;-90
2021/12/14 00:37:50;;;;;;;0.98;0.98;;;8.20;99.90;;;;;;5050108;28;20438;-90
2021/12/14 00:40:23;;;;;;;3.35;1.63;;;8.10;99.90;;;;;;5061327;28;20037;-89
2021/12/14 00:42:50;;;;;;;4.15;1.98;;;8.20;99.90;;;;;;5068101;28;20090;-90
2021/12/14 00:45:18;;;;;;;1.02;1.02;;;8.20;99.90;;;;;;5056559;28;20088;-89
2021/12/14 00:47:44;;;;;;;0.90;0.90;;;8.10;99.90;;;;;;5047703;28;20044;-90
2021/12/14 00:50:10;;;;;;;2.83;1.75;;;8.10;99.90;;;;;;5054490;28;20036;-90
2021/12/14 00:52:36;;;;;;;1.52;1.42;;;8.20;99.90;;;;;;5048324;28;20074;-90
2021/12/14 00:55:05;;;;;;;0.90;0.90;;;8.10;99.90;;;;;;5052394;28;20044;-89
2021/12/14 00:57:31;;;;;;;1.35;1.27;;;8.10;99.90;;;;;;5050763;28;20048;-88
2021/12/14 00:59:57;;;;;;;1.60;1.08;;;8.10;99.90;;;;;;5051687;28;20032;-88
2021/12/14 01:02:24;;;;;;;1.67;1.50;;;8.10;99.90;;;;;;5050250;28;20048;-89
2021/12/14 01:04:56;;;;;;;1.60;1.50;;;8.10;99.90;;;;;;5042969;28;20037;-88
2021/12/14 01:07:26;;;;;;;1.48;1.10;;;8.30;99.90;;;;;;5053039;28;20036;-89
2021/12/14 01:09:59;;;;;;;2.10;1.90;;;8.10;99.90;;;;;;5056918;28;20067;-90
2021/12/14 01:12:53;;;;;;;1.50;1.40;;;8.10;99.90;;;;;;5050429;28;20048;-90
2021/12/14 01:15:28;;;;;;;0.80;0.80;;;8.00;99.90;;;;;;5061092;28;20074;-89
2021/12/14 01:18:13;;;;;;;1.30;0.90;;;8.00;99.90;;;;;;5055691;28;20048;-89
2021/12/14 01:20:42;;;;;;;0.90;0.90;;;8.10;99.90;;;;;;5046795;28;20090;-89
2021/12/14 01:23:18;;;;;;;0.75;0.75;;;8.10;99.90;;;;;;5045161;28;20044;-90
2021/12/14 01:25:48;;;;;;;0.95;0.90;;;8.00;99.90;;;;;;5043510;28;20496;-90
2021/12/14 01:28:18;;;;;;;1.48;1.38;;;8.10;99.90;;;;;;5049665;28;20036;-89
2021/12/14 01:30:53;;;;;;;4.38;1.52;;;8.10;99.90;;;;;;5068149;28;20044;-88
2021/12/14 01:33:21;;;;;;;0.93;0.93;;;8.10;99.90;;;;;;5062222;28;20101;-88
2021/12/14 01:35:49;;;;;;;0.88;0.85;;;8.00;99.90;;;;;;5042257;28;20044;-89
2021/12/14 01:38:32;;;;;;;3.85;1.60;;;8.10;99.90;;;;;;5047802;28;20111;-89
2021/12/14 01:41:03;;;;;;;1.33;1.17;;;8.00;99.90;;;;;;5047323;28;20029;-90
2021/12/14 01:43:55;;;;;;;3.38;1.90;;;8.10;99.90;;;;;;5046757;28;20103;-90
2021/12/14 01:46:40;;;;;;;1.23;1.15;;;8.10;99.90;;;;;;5045359;28;20052;-90
2021/12/14 01:49:10;;;;;;;1.20;1.10;;;8.00;99.90;;;;;;5064340;28;20040;-90
2021/12/14 01:51:39;;;;;;;3.80;1.88;;;8.00;99.90;;;;;;5047770;28;20184;-90
2021/12/14 01:54:06;;;;;;;0.70;0.70;;;8.10;99.90;;;;;;5045250;28;20090;-89
2021/12/14 01:56:36;;;;;;;1.20;1.10;;;8.00;99.90;;;;;;5059190;28;20041;-89
2021/12/14 01:59:27;;;;;;;1.77;1.23;;;8.00;99.90;;;;;;5042673;28;20090;-90
2021/12/14 02:02:08;;;;;;;1.15;1.05;;;8.00;99.90;;;;;;5043628;28;20100;-90
2021/12/14 02:04:39;;;;;;;1.77;1.02;;;8.10;99.90;;;;;;5050175;28;20052;-89
2021/12/14 02:07:09;;;;;;;0.80;0.80;;;8.10;99.90;;;;;;5058796;28;20101;-90
2021/12/14 02:09:39;;;;;;;3.03;1.75;;;8.00;99.90;;;;;;5053616;28;20361;-90
2021/12/14 02:12:17;;;;;;;1.30;1.20;;;8.00;99.90;;;;;;5060534;28;20048;-90
2021/12/14 02:14:44;;;;;;;1.45;1.35;;;8.00;99.90;;;;;;5035951;28;20072;-90
2021/12/14 02:17:15;;;;;;;1.60;1.48;;;8.00;99.90;;;;;;5063159;28;20520;-90
2021/12/14 02:19:43;;;;;;;1.90;1.58;;;8.00;99.90;;;;;;5050200;28;20074;-90
2021/12/14 02:22:09;;;;;;;1.52;1.30;;;8.00;99.90;;;;;;5045164;28;20040;-89
2021/12/14 02:24:37;;;;;;;1.38;1.25;;;8.00;99.90;;;;;;5054514;28;20079;-88
2021/12/14 02:27:04;;;;;;;1.67;1.45;;;8.00;99.90;;;;;;5045932;28;20052;-90
2021/12/14 02:29:39;;;;;;;1.77;1.25;;;8.00;99.90;;;;;;5038385;28;20036;-89
2021/12/14 02:32:08;;;;;;;1.35;1.25;;;8.00;99.90;;;;;;5046154;28;20074;-89
2021/12/14 02:34:50;;;;;;;4.85;2.00;;;8.00;99.90;;;;;;5066229;28;20098;-89
2021/12/14 02:37:19;;;;;;;2.45;1.50;;;8.00;99.90;;;;;;5042072;28;20093;-91
2021/12/14 02:40:00;;;;;;;1.70;1.13;;;8.00;99.90;;;;;;5044521;28;20052;-89
2021/12/14 02:42:29;;;;;;;1.80;1.27;;;7.90;99.90;;;;;;5048957;28;20052;-90
2021/12/14 02:44:59;;;;;;;1.30;1.20;;;8.00;99.90;;;;;;5076980;28;20051;-90
2021/12/14 02:47:24;;;;;;;3.28;1.17;;;7.90;99.90;;;;;;5051574;28;20140;-89
2021/12/14 02:49:50;;;;;;;2.10;1.52;;;8.00;99.90;;;;;;5050887;28;20036;-91
2021/12/14 02:52:26;;;;;;;2.65;1.80;;;7.90;99.90;;;;;;5053446;28;20036;-90
2021/12/14 02:54:56;;;;;;;1.48;1.38;;;8.00;99.90;;;;;;5056989;28;20104;-90
2021/12/14 02:57:26;;;;;;;1.70;1.35;;;8.00;99.90;;;;;;5052951;28;20066;-91
2021/12/14 02:59:54;;;;;;;1.98;1.65;;;8.00;99.90;;;;;;5052528;28;20041;-90
2021/12/14 03:02:27;;;;;;;1.08;1.05;;;7.90;99.90;;;;;;5058982;28;20069;-91
2021/12/14 03:05:02;;;;;;;3.80;1.90;;;7.90;99.90;;;;;;5050544;28;20037;-90
2021/12/14 03:07:34;;;;;;;0.88;0.88;;;7.90;99.90;;;;;;5050723;28;20055;-90
2021/12/14 03:10:19;;;;;;;1.65;1.30;;;7.90;99.90;;;;;;5050702;28;20100;-88
2021/12/14 03:12:53;;;;;;;1.35;1.25;;;7.80;99.90;;;;;;5046743;28;20384;-89
2021/12/14 03:15:29;;;;;;;1.98;1.75;;;7.90;99.90;;;;;;5050903;28;20044;-88
2021/12/14 03:17:59;;;;;;;1.88;1.38;;;7.90;99.90;;;;;;5053084;28;20105;-88
2021/12/14 03:20:29;;;;;;;0.82;0.82;;;7.80;99.90;;;;;;5053033;28;20079;-90
2021/12/14 03:23:00;;;;;;;2.00;1.75;;;7.90;99.90;;;;;;5051726;28;20131;-87
2021/12/14 03:25:27;;;;;;;2.08;1.70;;;7.90;99.90;;;;;;5067235;28;20063;-89
2021/12/14 03:27:59;;;;;;;1.63;1.52;;;7.90;99.90;;;;;;5048961;28;20044;-89
2021/12/14 03:30:30;;;;;;;2.22;2.05;;;7.90;99.90;;;;;;5052595;28;20044;-89
2021/12/14 03:33:16;;;;;;;1.95;1.83;;;7.90;99.90;;;;;;5033425;28;20507;-89
2021/12/14 03:36:04;;;;;;;1.65;1.55;;;7.80;99.90;;;;;;5058213;28;20108;-90
2021/12/14 03:38:41;;;;;;;2.25;1.75;;;7.90;99.90;;;;;;5042720;28;20040;-90
2021/12/14 03:41:13;;;;;;;1.08;1.02;;;7.80;99.90;;;;;;5048481;28;20040;-90
2021/12/14 03:43:43;;;;;;;1.48;1.38;;;7.90;99.90;;;;;;5053036;28;20044;-89
2021/12/14 03:46:09;;;;;;;2.45;1.45;;;7.80;99.90;;;;;;5056011;28;20051;-89
2021/12/14 03:48:37;;;;;;;2.33;1.95;;;8.00;99.90;;;;;;5047958;28;20055;-90
2021/12/14 03:51:04;;;;;;;6.57;1.80;;;7.90;99.90;;;;;;5049373;28;20074;-89
2021/12/14 03:53:29;;;;;;;2.80;1.73;;;7.70;99.90;;;;;;5065817;28;20036;-89
2021/12/14 03:55:59;;;;;;;2.95;1.83;;;7.80;99.90;;;;;;5049565;28;20063;-89
2021/12/14 03:58:32;;;;;;;0.82;0.82;;;7.80;99.90;;;;;;5054182;28;20048;-90
2021/12/14 04:01:06;;;;;;;2.33;2.13;;;7.90;99.90;;;;;;5048273;28;20044;-89
2021/12/14 04:03:31;;;;;;;;;;;7.80;99.90;;;;;;5049585;28;20053;-88
2021/12/14 04:05:57;;;;;;;7.15;2.03;;;7.80;99.90;;;;;;5047123;28;19986;-87
2021/12/14 04:08:27;;;;;;;1.63;1.52;;;7.80;99.90;;;;;;5047391;28;20370;-89
2021/12/14 04:10:56;;;;;;;3.55;1.80;;;7.80;99.90;;;;;;5045691;28;20041;-89
2021/12/14 04:13:26;;;;;;;1.10;1.02;;;7.90;99.90;;;;;;5043002;28;20028;-90
2021/12/14 04:15:52;;;;;;;2.67;1.58;;;7.90;99.90;;;;;;5048349;28;20122;-89
2021/12/14 04:18:18;;;;;;;1.50;1.40;;;7.90;99.90;;;;;;5049262;28;20139;-90
2021/12/14 04:20:50;;;;;;;2.33;1.63;;;7.90;99.90;;;;;;5048179;28;20036;-88
2021/12/14 04:23:20;;;;;;;1.77;1.33;;;7.80;99.90;;;;;;5046994;28;20098;-90
2021/12/14 04:25:48;;;;;;;1.90;1.63;;;7.80;99.90;;;;;;5048387;28;20052;-88
2021/12/14 04:28:17;;;;;;;1.67;1.58;;;7.80;99.90;;;;;;5046730;28;20036;-88
2021/12/14 04:30:44;;;;;;;1.45;1.35;;;7.80;99.90;;;;;;5053181;28;20078;-87
2021/12/14 04:33:13;;;;;;;1.63;1.52;;;7.90;99.90;;;;;;5049675;28;20037;-87
2021/12/14 04:35:43;;;;;;;1.77;1.63;;;7.90;99.90;;;;;;5044782;28;20044;-88
2021/12/14 04:38:27;;;;;;;3.25;1.77;;;7.90;99.90;;;;;;5049279;28;20036;-88
2021/12/14 04:52:18;;;;;;;1.20;1.10;;;7.90;99.90;;;;;;5064430;28;20055;-90
2021/12/14 04:54:57;;;;;;;1.33;1.25;;;7.90;99.90;;;;;;5059811;28;20040;-89
2021/12/14 04:57:43;;;;;;;2.08;1.80;;;7.90;99.90;;;;;;5048537;28;20094;-88
2021/12/14 05:00:31;;;;;;;2.25;2.05;;;7.90;99.90;;;;;;5049054;28;20556;-89
2021/12/14 05:03:01;;;;;;;1.83;1.65;;;7.90;99.90;;;;;;5040815;28;20064;-88
2021/12/14 05:05:32;;;;;;;9.02;2.70;;;7.90;99.90;;;;;;5049676;28;20036;-89
2021/12/14 05:10:45;;;;;;;1.65;1.55;;;8.00;99.90;;;;;;5059840;28;20049;-88
2021/12/14 05:13:11;;;;;;;2.22;2.05;;;7.90;99.90;;;;;;5047392;28;20055;-89
2021/12/14 05:15:39;;;;;;;3.88;1.35;;;7.90;99.90;;;;;;5053794;28;20069;-89
2021/12/14 05:18:14;;;;;;;0.93;0.93;;;7.90;99.90;;;;;;5059741;28;20166;-89
2021/12/14 05:20:46;;;;;;;1.25;1.15;;;7.90;99.90;;;;;;5051822;28;20536;-89
2021/12/14 05:23:24;;;;;;;2.10;1.63;;;7.80;99.90;;;;;;5067232;28;20056;-89
2021/12/14 05:25:50;;;;;;;1.25;1.17;;;7.80;99.90;;;;;;5052023;28;20048;-89
2021/12/14 05:28:20;;;;;;;1.15;1.05;;;7.80;99.90;;;;;;5048323;28;20033;-89
2021/12/14 05:30:49;;;;;;;0.80;0.80;;;7.80;99.90;;;;;;5072592;28;20048;-89
2021/12/14 05:33:24;;;;;;;1.98;1.38;;;7.80;99.90;;;;;;5049129;28;20033;-88
2021/12/14 05:35:52;;;;;;;1.85;1.17;;;7.80;99.90;;;;;;5053123;28;20056;-89
2021/12/14 05:38:27;;;;;;;2.55;1.77;;;7.80;99.90;;;;;;5053919;28;20099;-89
2021/12/14 05:43:28;;;;;;;1.67;1.55;;;7.80;99.90;;;;;;5061413;28;20665;-90
2021/12/14 05:45:58;;;;;;;1.90;1.42;;;7.80;99.90;;;;;;5062755;28;20047;-89
2021/12/14 05:48:29;;;;;;;2.28;1.77;;;7.90;99.90;;;;;;5046604;28;20041;-90
2021/12/14 05:51:04;;;;;;;1.10;1.02;;;7.80;99.90;;;;;;5064638;28;20083;-90
2021/12/14 05:53:40;;;;;;;0.98;0.93;;;7.80;99.90;;;;;;5029801;28;20047;-91
2021/12/14 05:56:11;;;;;;;2.05;1.73;;;7.80;99.90;;;;;;5039714;28;20094;-89
2021/12/14 05:58:37;;;;;;;2.10;1.75;;;7.80;99.90;;;;;;5048351;28;20441;-91
2021/12/14 06:01:14;;;;;;;1.55;1.45;;;7.60;99.90;;;;;;5056812;28;20036;-91
2021/12/14 06:03:45;;;;;;;1.05;0.93;;;7.80;99.90;;;;;;5049590;28;20151;-90
2021/12/14 06:06:27;;;;;;;1.88;1.77;;;7.70;99.90;;;;;;5054799;28;20044;-89
2021/12/14 06:09:18;;;;;;;4.03;2.22;;;7.90;99.90;;;;;;5053876;28;20040;-89
2021/12/14 06:11:46;;;;;;;5.07;1.80;;;7.70;99.90;;;;;;5061241;28;20040;-89
2021/12/14 06:14:25;;;;;;;2.78;2.13;;;7.80;99.90;;;;;;5057366;28;20037;-89
2021/12/14 06:16:54;;;;;;;4.60;2.42;;;7.80;99.90;;;;;;5061160;28;20036;-89
2021/12/14 06:19:29;;;;;;;1.92;1.52;;;7.80;99.90;;;;;;5046904;28;20044;-88
2021/12/14 06:22:09;;;;;;;2.55;1.45;;;7.80;99.90;;;;;;5043692;28;20040;-89
2021/12/14 06:24:38;;;;;;;2.55;2.22;;;7.70;99.90;;;;;;5044400;28;20048;-88
2021/12/14 06:27:08;;;;;;;1.90;1.50;;;7.80;99.90;;;;;;5047342;28;20044;-88
2021/12/14 06:29:37;;;;;;;3.60;2.78;;;7.70;99.90;;;;;;5037486;28;20063;-89
2021/12/14 06:32:11;;;;;;;2.13;1.73;;;7.70;99.90;;;;;;5045913;28;20041;-89
2021/12/14 06:34:42;;;;;;;2.45;2.25;;;7.80;99.90;;;;;;5047407;28;20045;-88
2021/12/14 06:37:18;;;;;;;1.23;1.13;;;7.70;99.90;;;;;;5036501;28;20044;-90
2021/12/14 06:40:09;;;;;;;3.92;2.33;;;7.70;99.90;;;;;;5039380;28;20041;-93
2021/12/14 06:42:42;;;;;;;1.15;1.08;;;7.70;99.90;;;;;;5056652;28;20044;-90
2021/12/14 06:45:11;;;;;;;1.58;1.48;;;7.80;99.90;;;;;;5052334;28;20102;-90
2021/12/14 06:47:39;;;;;;;1.63;1.52;;;7.70;99.90;;;;;;5055952;28;20391;-88
2021/12/14 06:50:10;;;;;;;1.48;1.38;;;7.70;99.90;;;;;;5040481;28;20032;-90
2021/12/14 06:52:36;;;;;;;1.98;1.23;;;7.70;99.90;;;;;;5047090;28;20051;-88
2021/12/14 06:55:04;;;;;;;1.88;1.58;;;7.80;99.90;;;;;;5037987;28;20049;-89
2021/12/14 06:57:30;;;;;;;3.15;1.52;;;7.70;99.90;;;;;;5050026;28;20056;-89
2021/12/14 06:59:57;;;;;;;2.00;1.80;;;7.70;99.90;;;;;;5063939;28;20037;-89
2021/12/14 07:02:24;;;;;;;1.75;1.60;;;7.70;99.90;;;;;;5046035;28;20167;-90
2021/12/14 07:04:51;;;;;;;3.45;2.22;;;7.70;99.90;;;;;;5048992;28;20398;-90
2021/12/14 07:07:26;;;;;;;1.25;1.15;;;7.70;99.90;;;;;;5042974;28;20497;-91
2021/12/14 07:09:55;;;;;;;2.00;1.42;;;7.70;99.90;;;;;;5044188;28;20052;-91
2021/12/14 07:12:28;;;;;;;11.90;3.58;;;7.70;99.90;;;;;;5063185;28;20058;-90
2021/12/14 07:14:53;;;;;;;2.15;1.95;;;7.70;99.90;;;;;;5063326;28;20100;-90
2021/12/14 07:17:27;;;;;;;1.45;1.30;;;7.70;99.90;;;;;;5036338;28;20094;-90
2021/12/14 07:19:58;;;;;;;2.05;1.55;;;7.70;99.90;;;;;;5030118;28;20127;-90
2021/12/14 07:22:24;;;;;;;2.47;1.85;;;7.60;99.90;;;;;;5052525;28;20048;-90
2021/12/14 07:25:18;;;;;;;2.50;2.15;;;7.70;99.90;;;;;;5046309;28;20055;-90
2021/12/14 07:27:44;;;;;;;4.10;2.73;;;7.70;99.90;;;;;;5063833;28;20041;-88
2021/12/14 07:30:21;;;;;;;2.20;2.05;;;7.70;99.90;;;;;;5051664;28;20039;-89
2021/12/14 07:32:51;;;;;;;2.80;1.95;;;7.70;99.90;;;;;;5055916;28;20055;-90
2021/12/14 07:35:20;;;;;;;3.28;2.67;;;7.60;99.90;;;;;;5036767;28;20131;-91
2021/12/14 07:37:46;;;;;;;0.88;0.88;;;7.60;99.90;;;;;;5048816;28;20052;-95
2021/12/14 07:40:12;;;;;;;1.35;1.25;;;7.70;99.90;;;;;;5040152;28;20655;-91
2021/12/14 07:42:38;;;;;;;2.78;2.13;;;7.60;99.90;;;;;;5050718;28;20036;-93
2021/12/14 07:45:06;;;;;;;2.85;1.52;;;7.60;99.90;;;;;;5052205;28;20052;-92
2021/12/14 07:47:32;;;;;;;1.30;1.20;;;7.60;99.90;;;;;;5051009;28;20036;-93
2021/12/14 07:49:58;;;;;;;1.42;1.33;;;7.60;99.90;;;;;;5057717;28;20039;-94
2021/12/14 07:52:36;;;;;;;1.50;1.13;;;7.70;99.90;;;;;;5053316;28;20128;-88
2021/12/14 07:55:18;;;;;;;1.70;1.58;;;7.70;99.90;;;;;;5065978;28;20041;-87
2021/12/14 07:57:46;;;;;;;3.58;2.15;;;7.60;99.90;;;;;;5065973;28;20044;-90
2021/12/14 08:00:26;;;;;;;1.17;1.10;;;7.70;99.90;;;;;;5052102;28;20078;-88
2021/12/14 08:02:55;;;;;;;8.48;5.82;;;7.70;99.90;;;;;;5063711;28;20056;-88
2021/12/14 08:05:28;;;;;;;2.58;1.83;;;7.70;99.90;;;;;;5050070;28;20074;-89
2021/12/14 08:08:18;;;;;;;1.60;1.38;;;7.60;99.90;;;;;;5050069;28;20060;-89
2021/12/14 08:10:56;;;;;;;3.38;2.03;;;7.70;99.90;;;;;;5066241;28;20044;-89
2021/12/14 08:13:24;;;;;;;4.05;2.78;;;7.70;99.90;;;;;;5049653;28;20039;-89
2021/12/14 08:15:56;;;;;;;3.17;2.25;;;7.50;99.90;;;;;;5048896;28;20441;-88
2021/12/14 08:18:34;;;;;;;3.60;3.30;;;7.70;99.90;;;;;;5042541;28;20052;-88
2021/12/14 08:21:09;;;;;;;2.25;1.85;;;7.70;99.90;;;;;;5053849;28;20090;-90
2021/12/14 08:23:57;;;;;;;2.13;1.92;;;7.80;99.90;;;;;;5049465;28;20045;-89
2021/12/14 08:26:30;;;;;;;2.15;1.95;;;7.70;99.90;;;;;;5064659;28;20476;-87
2021/12/14 08:29:00;;;;;;;1.50;1.35;;;7.70;99.90;;;;;;5072472;28;20041;-89
2021/12/14 08:31:36;;;;;;;3.00;2.75;;;7.70;99.90;;;;;;5053464;28;20058;-89
2021/12/14 08:34:08;;;;;;;2.00;1.90;;;7.80;99.90;;;;;;5064310;28;20097;-92
2021/12/14 08:37:09;;;;;;;1.30;1.20;;;7.80;99.90;;;;;;5050504;28;20037;-92
2021/12/14 08:39:43;;;;;;;3.88;2.65;;;7.80;99.90;;;;;;5052562;28;20056;-90
2021/12/14 08:42:15;;;;;;;1.00;1.00;;;7.90;99.90;;;;;;5037213;28;20041;-92
2021/12/14 08:44:52;;;;;;;2.55;1.88;;;7.80;99.90;;;;;;5052294;28;20041;-91
2021/12/14 08:47:50;;;;;;;1.95;1.13;;;7.80;99.90;;;;;;5051584;28;20048;-91
2021/12/14 08:50:16;;;;;;;6.18;2.38;;;7.90;99.90;;;;;;5034792;28;20048;-89
2021/12/14 08:52:42;;;;;;;2.20;1.52;;;7.90;99.90;;;;;;5060369;28;20036;-94
2021/12/14 08:55:11;;;;;;;3.55;2.70;;;8.00;99.90;;;;;;5056507;28;20013;-92
2021/12/14 08:57:38;;;;;;;2.45;1.73;;;7.90;99.90;;;;;;5061754;28;20055;-92
2021/12/14 09:00:13;;;;;;;2.45;2.25;;;8.00;99.90;;;;;;5062027;28;20334;-92
2021/12/14 09:02:40;;;;;;;1.98;1.88;;;7.90;99.90;;;;;;5057189;28;20047;-92
2021/12/14 09:05:26;;;;;;;4.10;2.63;;;8.00;99.90;;;;;;5063606;28;20024;-92
2021/12/14 09:07:55;;;;;;;2.60;2.08;;;7.90;99.90;;;;;;5064409;28;20039;-92
2021/12/14 09:10:23;;;;;;;4.05;2.45;;;7.90;99.90;;;;;;5062745;28;20025;-92
2021/12/14 09:12:51;;;;;;;1.90;1.40;;;7.90;99.90;;;;;;5058425;28;20033;-94
2021/12/14 09:15:23;;;;;;;1.83;1.73;;;8.00;99.90;;;;;;5058583;28;20068;-93
2021/12/14 09:17:51;;;;;;;1.50;1.40;;;8.00;99.90;;;;;;5048959;28;20064;-91
2021/12/14 09:20:26;;;;;;;4.93;2.00;;;8.00;99.90;;;;;;5049601;28;20040;-90
2021/12/14 09:22:57;;;;;;;1.50;1.40;;;8.00;99.90;;;;;;5049606;28;20055;-92
2021/12/14 09:25:27;;;;;;;2.13;1.52;;;8.00;99.90;;;;;;5052267;28;20046;-91
2021/12/14 09:27:54;;;;;;;3.03;2.42;;;8.00;99.90;;;;;;5050040;28;20044;-90
2021/12/14 09:30:22;;;;;;;1.67;1.58;;;8.00;99.90;;;;;;5049713;28;20048;-93
2021/12/14 09:32:48;;;;;;;1.55;1.45;;;8.00;99.90;;;;;;5049613;28;20044;-93
2021/12/14 09:35:19;;;;;;;5.50;4.95;;;8.10;99.90;;;;;;5049988;28;20041;-92
2021/12/14 09:37:47;;;;;;;2.83;1.45;;;8.20;99.90;;;;;;5049081;28;20107;-90
2021/12/14 09:40:20;;;;;;;1.90;1.33;;;8.10;99.90;;;;;;5049297;28;20040;-91
2021/12/14 09:42:46;;;;;;;2.63;2.00;;;8.20;99.90;;;;;;5048650;28;20424;-91
2021/12/14 09:45:34;;;;;;;3.17;2.80;;;8.20;99.90;;;;;;5049408;28;20166;-90
2021/12/14 09:48:04;;;;;;;4.03;1.52;;;8.30;99.90;;;;;;5048775;28;20040;-91
2021/12/14 09:50:34;;;;;;;3.38;2.42;;;8.20;99.90;;;;;;5034789;28;20377;-90
2021/12/14 09:53:02;;;;;;;1.77;1.60;;;8.30;99.90;;;;;;5057727;28;20051;-91
2021/12/14 09:55:31;;;;;;;1.58;1.48;;;8.30;99.90;;;;;;5049746;28;20071;-90
2021/12/14 09:58:02;;;;;;;1.40;1.30;;;8.40;99.90;;;;;;5053418;28;20106;-90
2021/12/14 10:00:39;;;;;;;3.05;2.22;;;8.30;99.90;;;;;;5053037;28;20140;-89
2021/12/14 10:03:05;;;;;;;2.00;1.80;;;8.40;99.90;;;;;;5048161;28;20504;-89
2021/12/14 10:05:41;;;;;;;2.08;1.80;;;8.40;99.90;;;;;;5066709;28;20057;-89
2021/12/14 10:08:17;;;;;;;1.50;1.40;;;8.30;99.90;;;;;;5057438;28;20039;-90
2021/12/14 10:10:49;;;;;;;2.63;1.95;;;8.30;99.90;;;;;;5060085;28;20037;-90
2021/12/14 10:13:15;;;;;;;2.40;2.08;;;8.30;99.90;;;;;;5060189;28;20071;-91
2021/12/14 10:15:51;;;;;;;1.83;1.73;;;8.30;99.90;;;;;;5052037;28;20039;-89
2021/12/14 10:18:24;;;;;;;2.53;2.20;;;8.30;99.90;;;;;;5054950;28;20036;-91
2021/12/14 10:21:16;;;;;;;4.57;2.33;;;8.40;99.90;;;;;;5048833;28;20075;-92
2021/12/14 10:23:44;;;;;;;2.55;2.25;;;8.50;99.90;;;;;;5047829;28;20036;-92
2021/12/14 10:26:11;;;;;;;4.43;2.00;;;8.40;99.90;;;;;;5049930;28;20040;-89
2021/12/14 10:28:41;;;;;;;2.78;2.50;;;8.40;99.90;;;;;;5048305;28;20161;-89
2021/12/14 10:31:20;;;;;;;2.15;1.92;;;8.40;99.90;;;;;;5054922;28;20114;-89
2021/12/14 10:33:46;;;;;;;1.95;1.75;;;8.40;99.90;;;;;;5039483;28;20060;-89
2021/12/14 10:36:24;;;;;;;1.70;1.60;;;8.40;99.90;;;;;;5055000;28;20066;-89
2021/12/14 10:39:06;;;;;;;2.17;1.83;;;8.40;99.90;;;;;;5053052;28;20040;-88
2021/12/14 10:44:16;;;;;;;2.03;1.65;;;8.40;99.90;;;;;;5067629;28;20472;-90
2021/12/14 10:46:46;;;;;;;1.67;1.52;;;8.40;99.90;;;;;;5046823;28;20044;-89
2021/12/14 10:49:14;;;;;;;1.00;1.00;;;8.30;99.90;;;;;;5044698;28;20064;-89
2021/12/14 10:51:42;;;;;;;1.40;1.30;;;8.40;99.90;;;;;;5046803;28;20125;-89
2021/12/14 10:54:13;;;;;;;1.02;1.02;;;8.40;99.90;;;;;;5052319;28;20040;-89
2021/12/14 10:56:50;;;;;;;1.85;1.70;;;8.50;99.90;;;;;;5066300;28;20511;-90
2021/12/14 10:59:20;;;;;;;1.33;1.23;;;8.50;99.90;;;;;;5046845;28;20051;-90
2021/12/14 11:01:50;;;;;;;1.60;1.50;;;8.50;99.90;;;;;;5056890;28;20029;-89
2021/12/14 11:04:23;;;;;;;1.20;1.10;;;8.50;99.90;;;;;;5042130;28;20501;-90
2021/12/14 11:06:52;;;;;;;1.52;1.42;;;8.50;99.90;;;;;;5060409;28;20036;-91
2021/12/14 11:12:27;;;;;;;1.77;1.30;;;8.60;99.90;;;;;;5058578;28;20048;-88
2021/12/14 11:15:06;;;;;;;2.55;2.35;;;8.60;99.90;;;;;;5051287;28;20052;-88
2021/12/14 11:20:19;;;;;;;0.80;0.80;;;8.60;99.90;;;;;;5067100;28;20044;-90
2021/12/14 11:22:48;;;;;;;6.25;1.85;;;8.60;99.90;;;;;;5067819;28;20075;-89
2021/12/14 11:25:19;;;;;;;1.55;1.45;;;8.60;99.90;;;;;;5054807;28;20345;-90
2021/12/14 11:27:49;;;;;;;0.68;0.68;;;8.60;99.90;;;;;;5047500;28;20044;-90
2021/12/14 11:30:23;;;;;;;6.18;1.40;;;8.60;99.90;;;;;;5058088;28;20112;-90
2021/12/14 11:33:10;;;;;;;2.85;1.75;;;8.60;99.90;;;;;;5045110;28;20033;-89
2021/12/14 11:35:40;;;;;;;2.40;1.38;;;8.70;99.90;;;;;;5062378;28;20109;-91
2021/12/14 11:38:22;;;;;;;3.30;2.05;;;8.70;99.90;;;;;;5054887;28;20100;-92
2021/12/14 11:40:48;;;;;;;5.95;3.40;;;8.60;99.90;;;;;;5061485;28;20062;-90
2021/12/14 11:43:22;;;;;;;4.47;1.73;;;8.60;99.90;;;;;;5049682;28;20059;-91
2021/12/14 11:45:52;;;;;;;2.25;1.38;;;8.60;99.90;;;;;;5043488;28;20051;-90
2021/12/14 11:48:34;;;;;;;4.45;3.05;;;8.60;99.90;;;;;;5050638;28;20037;-91
2021/12/14 11:51:03;;;;;;;1.00;1.00;;;8.70;99.90;;;;;;5047417;28;20175;-90
2021/12/14 11:53:29;;;;;;;2.05;1.90;;;8.70;99.90;;;;;;5050721;28;20036;-93
2021/12/14 11:56:14;;;;;;;1.75;1.40;;;8.60;99.90;;;;;;5050613;28;20412;-91
2021/12/14 11:58:58;;;;;;;1.50;1.35;;;8.70;99.90;;;;;;5053584;28;20045;-91
2021/12/14 12:01:23;;;;;;;;;;;8.70;99.90;;;;;;5054018;28;20051;-91
2021/12/14 12:04:14;;;;;;;1.60;1.50;;;8.50;99.90;;;;;;5063798;28;19924;-91
2021/12/14 12:09:46;;;;;;;1.33;1.23;;;8.60;99.90;;;;;;5061532;28;20093;-92
2021/12/14 12:12:18;;;;;;;2.08;1.30;;;8.70;99.90;;;;;;5053806;28;20045;-90
2021/12/14 12:15:03;;;;;;;1.20;1.10;;;8.60;99.90;;;;;;5059349;28;20182;-90
2021/12/14 12:17:47;;;;;;;2.22;1.05;;;8.70;99.90;;;;;;5047940;28;20150;-91
2021/12/14 12:20:32;;;;;;;1.40;1.30;;;8.70;99.90;;;;;;5049932;28;20611;-91
2021/12/14 12:23:21;;;;;;;1.42;1.33;;;8.70;99.90;;;;;;5056258;28;20043;-89
2021/12/14 12:25:58;;;;;;;1.75;1.65;;;8.60;99.90;;;;;;5066368;28;20558;-90
2021/12/14 12:28:32;;;;;;;1.23;1.13;;;8.60;99.90;;;;;;5050072;28;20040;-89
2021/12/14 12:31:12;;;;;;;1.33;1.23;;;8.60;99.90;;;;;;5062743;28;20131;-93
2021/12/14 12:33:54;;;;;;;1.02;0.93;;;8.60;99.90;;;;;;5066269;28;20044;-91
2021/12/14 12:36:35;;;;;;;1.40;1.30;;;8.60;99.90;;;;;;5051322;28;20040;-92
2021/12/14 12:39:09;;;;;;;2.00;1.60;;;8.60;99.90;;;;;;5053687;28;20041;-90
2021/12/14 12:41:38;;;;;;;;;;;8.60;99.90;;;;;;5049867;28;20036;-90
2021/12/14 12:44:25;;;;;;;1.33;1.23;;;8.70;99.90;;;;;;5058428;28;20172;-90
2021/12/14 12:46:59;;;;;;;2.50;1.83;;;8.70;99.90;;;;;;5047198;28;20040;-90
2021/12/14 12:49:31;;;;;;;1.58;1.48;;;8.70;99.90;;;;;;5050678;28;20051;-91
2021/12/14 12:52:08;;;;;;;1.70;1.60;;;8.70;99.90;;;;;;5062851;28;20043;-92
2021/12/14 12:54:45;;;;;;;3.15;1.95;;;8.80;99.90;;;;;;5046571;28;20182;-92
2021/12/14 12:57:13;;;;;;;1.73;1.45;;;8.80;99.90;;;;;;5036933;28;20049;-92
2021/12/14 12:59:54;;;;;;;0.98;0.90;;;8.70;99.90;;;;;;5046023;28;20113;-90
2021/12/14 13:02:22;;;;;;;1.48;1.27;;;8.80;99.90;;;;;;5044450;28;20072;-91
2021/12/14 13:05:00;;;;;;;1.13;1.02;;;8.80;99.90;;;;;;5046592;28;20061;-91
2021/12/14 13:07:30;;;;;;;0.75;0.75;;;8.70;99.90;;;;;;5049328;28;20062;-93
2021/12/14 13:10:28;;;;;;;0.98;0.90;;;8.80;99.90;;;;;;5049189;28;20132;-92
2021/12/14 13:13:02;;;;;;;1.13;1.02;;;8.80;99.90;;;;;;5037260;28;20063;-92
2021/12/14 13:15:43;;;;;;;1.25;1.25;;;8.80;99.90;;;;;;5053675;28;20044;-91
2021/12/14 13:18:33;;;;;;;0.60;0.60;;;8.80;99.90;;;;;;5049386;28;20174;-91
2021/12/14 13:21:09;;;;;;;0.95;0.95;;;8.80;99.90;;;;;;5066752;28;20044;-93
2021/12/14 13:24:00;;;;;;;0.70;0.70;;;8.80;99.90;;;;;;5050154;28;20484;-96
2021/12/14 13:26:47;;;;;;;1.50;1.35;;;8.80;99.90;;;;;;5045057;28;20064;-95
2021/12/14 13:29:30;;;;;;;1.55;1.45;;;8.80;99.90;;;;;;5037743;28;20096;-93
2021/12/14 13:32:00;;;;;;;1.02;0.90;;;8.80;99.90;;;;;;5048816;28;20040;-96
2021/12/14 13:34:39;;;;;;;0.80;0.80;;;8.80;99.90;;;;;;5042155;28;20068;-96
2021/12/14 13:37:07;;;;;;;2.55;1.45;;;8.80;99.90;;;;;;5046740;28;20055;-95
2021/12/14 13:39:34;;;;;;;2.10;1.13;;;8.80;99.90;;;;;;5049393;28;20052;-95
2021/12/14 13:42:07;;;;;;;3.55;1.90;;;8.80;99.90;;;;;;5048903;28;20543;-94
2021/12/14 13:44:50;;;;;;;3.13;2.35;;;8.80;99.90;;;;;;5045149;28;20039;-95
2021/12/14 13:47:19;;;;;;;1.63;1.45;;;8.70;99.90;;;;;;5053457;28;20051;-94
2021/12/14 13:49:46;;;;;;;2.20;2.03;;;8.90;99.90;;;;;;5059854;28;20044;-93
2021/12/14 13:52:14;;;;;;;1.77;1.67;;;8.70;99.90;;;;;;5049170;28;20135;-94
2021/12/14 13:55:08;;;;;;;6.47;3.55;;;8.80;99.90;;;;;;5051678;28;20468;-94
2021/12/14 13:57:37;;;;;;;2.92;1.85;;;8.80;99.90;;;;;;5051727;28;20044;-94
2021/12/14 14:00:07;;;;;;;1.92;1.83;;;8.80;99.90;;;;;;5047522;28;20404;-93